sensor_id;sensor_type;location;lat;lon;timestamp;P1;durP1;ratioP1;P2;durP2;ratioP2
6342;SDS011;3204;42.698;23.298;2023-03-19T00:01:48;35.10;;;20.73;;
6342;SDS011;3204;42.698;23.298;2023-03-19T00:04:13;31.87;;;18.90;;
6342;SDS011;3204;42.698;23.298;2023-03-19T00:06:40;26.27;;;15.93;;
6342;SDS011;3204;42.698;23.298;2023-03-19T00:09:06;32.73;;;18.20;;
6342;SDS011;3204;42.698;23.298;2023-03-19T00:11:31;30.77;;;17.10;;
6342;SDS011;3204;42.698;23.298;2023-03-19T00:13:57;31.73;;;18.83;;
6342;SDS011;3204;42.698;23.298;2023-03-19T00:16:22;25.13;;;16.20;;
6342;SDS011;3204;42.698;23.298;2023-03-19T00:18:48;33.53;;;17.13;;
6342;SDS011;3204;42.698;23.298;2023-03-19T00:21:13;28.53;;;17.37;;
6342;SDS011;3204;42.698;23.298;2023-03-19T00:23:39;24.97;;;15.97;;
6342;SDS011;3204;42.698;23.298;2023-03-19T00:26:05;23.13;;;15.10;;
6342;SDS011;3204;42.698;23.298;2023-03-19T00:28:30;25.53;;;15.37;;
6342;SDS011;3204;42.698;23.298;2023-03-19T00:30:56;25.80;;;15.07;;
6342;SDS011;3204;42.698;23.298;2023-03-19T00:33:22;24.57;;;16.70;;
6342;SDS011;3204;42.698;23.298;2023-03-19T00:35:50;26.03;;;17.70;;
6342;SDS011;3204;42.698;23.298;2023-03-19T00:38:16;22.17;;;14.77;;
6342;SDS011;3204;42.698;23.298;2023-03-19T00:40:41;24.53;;;14.37;;
6342;SDS011;3204;42.698;23.298;2023-03-19T00:43:11;22.37;;;14.60;;
6342;SDS011;3204;42.698;23.298;2023-03-19T00:45:37;20.43;;;14.13;;
6342;SDS011;3204;42.698;23.298;2023-03-19T00:48:02;18.27;;;12.70;;
6342;SDS011;3204;42.698;23.298;2023-03-19T00:50:28;24.10;;;12.93;;
6342;SDS011;3204;42.698;23.298;2023-03-19T00:52:53;17.13;;;11.40;;
6342;SDS011;3204;42.698;23.298;2023-03-19T00:55:19;15.13;;;11.57;;
6342;SDS011;3204;42.698;23.298;2023-03-19T00:57:45;14.30;;;11.83;;
6342;SDS011;3204;42.698;23.298;2023-03-19T01:00:10;13.60;;;12.00;;
6342;SDS011;3204;42.698;23.298;2023-03-19T01:02:36;15.17;;;12.23;;
6342;SDS011;3204;42.698;23.298;2023-03-19T01:05:02;18.20;;;11.00;;
6342;SDS011;3204;42.698;23.298;2023-03-19T01:07:28;20.37;;;11.37;;
6342;SDS011;3204;42.698;23.298;2023-03-19T01:09:53;12.90;;;11.10;;
6342;SDS011;3204;42.698;23.298;2023-03-19T01:12:18;13.13;;;10.23;;
6342;SDS011;3204;42.698;23.298;2023-03-19T01:14:44;13.17;;;10.60;;
6342;SDS011;3204;42.698;23.298;2023-03-19T01:17:09;12.83;;;10.20;;
6342;SDS011;3204;42.698;23.298;2023-03-19T01:19:35;14.47;;;11.67;;
6342;SDS011;3204;42.698;23.298;2023-03-19T01:22:01;15.23;;;11.13;;
6342;SDS011;3204;42.698;23.298;2023-03-19T01:24:29;13.77;;;11.50;;
6342;SDS011;3204;42.698;23.298;2023-03-19T01:26:55;16.80;;;11.87;;
6342;SDS011;3204;42.698;23.298;2023-03-19T01:29:20;13.53;;;10.73;;
6342;SDS011;3204;42.698;23.298;2023-03-19T01:31:46;15.43;;;11.80;;
6342;SDS011;3204;42.698;23.298;2023-03-19T01:34:11;15.23;;;12.40;;
6342;SDS011;3204;42.698;23.298;2023-03-19T01:36:37;23.83;;;14.27;;
6342;SDS011;3204;42.698;23.298;2023-03-19T01:39:02;24.77;;;15.90;;
6342;SDS011;3204;42.698;23.298;2023-03-19T01:41:28;26.57;;;16.20;;
6342;SDS011;3204;42.698;23.298;2023-03-19T01:43:54;37.90;;;18.67;;
6342;SDS011;3204;42.698;23.298;2023-03-19T01:46:52;42.63;;;20.70;;
6342;SDS011;3204;42.698;23.298;2023-03-19T01:49:11;33.07;;;17.77;;
6342;SDS011;3204;42.698;23.298;2023-03-19T01:51:38;33.87;;;18.60;;
6342;SDS011;3204;42.698;23.298;2023-03-19T01:54:08;32.43;;;17.57;;
6342;SDS011;3204;42.698;23.298;2023-03-19T01:56:39;25.97;;;16.67;;
6342;SDS011;3204;42.698;23.298;2023-03-19T01:59:21;28.27;;;17.83;;
6342;SDS011;3204;42.698;23.298;2023-03-19T02:01:53;32.23;;;18.77;;
6342;SDS011;3204;42.698;23.298;2023-03-19T02:04:23;33.90;;;19.13;;
6342;SDS011;3204;42.698;23.298;2023-03-19T02:06:51;35.20;;;20.10;;
6342;SDS011;3204;42.698;23.298;2023-03-19T02:09:20;29.63;;;18.37;;
6342;SDS011;3204;42.698;23.298;2023-03-19T02:11:45;26.33;;;18.30;;
6342;SDS011;3204;42.698;23.298;2023-03-19T02:14:11;32.57;;;18.57;;
6342;SDS011;3204;42.698;23.298;2023-03-19T02:16:37;30.47;;;18.93;;
6342;SDS011;3204;42.698;23.298;2023-03-19T02:19:03;33.47;;;18.77;;
6342;SDS011;3204;42.698;23.298;2023-03-19T02:21:32;34.27;;;18.40;;
6342;SDS011;3204;42.698;23.298;2023-03-19T02:26:30;33.67;;;18.73;;
6342;SDS011;3204;42.698;23.298;2023-03-19T02:28:56;35.47;;;20.13;;
6342;SDS011;3204;42.698;23.298;2023-03-19T02:31:22;40.20;;;20.07;;
6342;SDS011;3204;42.698;23.298;2023-03-19T02:34:04;44.73;;;26.27;;
6342;SDS011;3204;42.698;23.298;2023-03-19T02:36:53;41.67;;;24.67;;
6342;SDS011;3204;42.698;23.298;2023-03-19T02:39:20;40.40;;;23.93;;
6342;SDS011;3204;42.698;23.298;2023-03-19T02:41:50;42.47;;;24.07;;
6342;SDS011;3204;42.698;23.298;2023-03-19T02:44:18;40.17;;;22.63;;
6342;SDS011;3204;42.698;23.298;2023-03-19T02:46:44;37.13;;;22.33;;
6342;SDS011;3204;42.698;23.298;2023-03-19T02:49:10;44.10;;;23.00;;
6342;SDS011;3204;42.698;23.298;2023-03-19T02:51:36;37.13;;;21.97;;
6342;SDS011;3204;42.698;23.298;2023-03-19T02:54:02;38.90;;;20.80;;
6342;SDS011;3204;42.698;23.298;2023-03-19T02:56:28;38.00;;;21.47;;
6342;SDS011;3204;42.698;23.298;2023-03-19T02:58:53;38.30;;;21.70;;
6342;SDS011;3204;42.698;23.298;2023-03-19T03:01:19;41.70;;;23.00;;
6342;SDS011;3204;42.698;23.298;2023-03-19T03:03:45;34.13;;;20.30;;
6342;SDS011;3204;42.698;23.298;2023-03-19T03:06:11;33.77;;;20.20;;
6342;SDS011;3204;42.698;23.298;2023-03-19T03:08:36;34.93;;;20.20;;
6342;SDS011;3204;42.698;23.298;2023-03-19T03:11:02;34.27;;;18.93;;
6342;SDS011;3204;42.698;23.298;2023-03-19T03:13:27;31.70;;;19.00;;
6342;SDS011;3204;42.698;23.298;2023-03-19T03:15:53;33.03;;;19.47;;
6342;SDS011;3204;42.698;23.298;2023-03-19T03:18:18;32.27;;;19.13;;
6342;SDS011;3204;42.698;23.298;2023-03-19T03:20:44;30.90;;;18.13;;
6342;SDS011;3204;42.698;23.298;2023-03-19T03:23:09;30.03;;;18.57;;
6342;SDS011;3204;42.698;23.298;2023-03-19T03:25:35;32.60;;;18.10;;
6342;SDS011;3204;42.698;23.298;2023-03-19T03:28:01;30.03;;;16.73;;
6342;SDS011;3204;42.698;23.298;2023-03-19T03:30:27;27.93;;;15.70;;
6342;SDS011;3204;42.698;23.298;2023-03-19T03:32:53;20.77;;;13.87;;
6342;SDS011;3204;42.698;23.298;2023-03-19T03:35:18;22.90;;;14.13;;
6342;SDS011;3204;42.698;23.298;2023-03-19T03:37:48;21.63;;;13.10;;
6342;SDS011;3204;42.698;23.298;2023-03-19T03:40:14;18.10;;;12.43;;
6342;SDS011;3204;42.698;23.298;2023-03-19T03:42:40;17.37;;;13.07;;
6342;SDS011;3204;42.698;23.298;2023-03-19T03:45:06;17.67;;;12.37;;
6342;SDS011;3204;42.698;23.298;2023-03-19T03:47:33;15.73;;;11.97;;
6342;SDS011;3204;42.698;23.298;2023-03-19T03:49:59;22.30;;;11.87;;
6342;SDS011;3204;42.698;23.298;2023-03-19T03:52:25;22.47;;;13.20;;
6342;SDS011;3204;42.698;23.298;2023-03-19T03:54:55;23.40;;;13.63;;
6342;SDS011;3204;42.698;23.298;2023-03-19T03:57:22;18.57;;;13.57;;
6342;SDS011;3204;42.698;23.298;2023-03-19T03:59:47;20.10;;;13.67;;
6342;SDS011;3204;42.698;23.298;2023-03-19T04:02:13;21.93;;;13.43;;
6342;SDS011;3204;42.698;23.298;2023-03-19T04:04:38;23.03;;;13.20;;
6342;SDS011;3204;42.698;23.298;2023-03-19T04:07:03;27.17;;;14.37;;
6342;SDS011;3204;42.698;23.298;2023-03-19T04:09:29;17.10;;;13.17;;
6342;SDS011;3204;42.698;23.298;2023-03-19T04:11:55;23.00;;;12.70;;
6342;SDS011;3204;42.698;23.298;2023-03-19T04:14:20;14.63;;;12.13;;
6342;SDS011;3204;42.698;23.298;2023-03-19T04:16:46;20.73;;;13.10;;
6342;SDS011;3204;42.698;23.298;2023-03-19T04:19:12;21.63;;;14.00;;
6342;SDS011;3204;42.698;23.298;2023-03-19T04:21:38;26.50;;;14.87;;
6342;SDS011;3204;42.698;23.298;2023-03-19T04:24:03;26.10;;;13.90;;
6342;SDS011;3204;42.698;23.298;2023-03-19T04:26:29;30.57;;;15.73;;
6342;SDS011;3204;42.698;23.298;2023-03-19T04:28:56;37.70;;;20.50;;
6342;SDS011;3204;42.698;23.298;2023-03-19T04:31:22;35.20;;;18.57;;
6342;SDS011;3204;42.698;23.298;2023-03-19T04:33:47;35.33;;;18.87;;
6342;SDS011;3204;42.698;23.298;2023-03-19T04:36:13;27.67;;;16.67;;
6342;SDS011;3204;42.698;23.298;2023-03-19T04:38:39;33.47;;;15.47;;
6342;SDS011;3204;42.698;23.298;2023-03-19T04:41:05;26.63;;;14.57;;
6342;SDS011;3204;42.698;23.298;2023-03-19T04:43:31;28.80;;;16.93;;
6342;SDS011;3204;42.698;23.298;2023-03-19T04:45:56;26.43;;;16.63;;
6342;SDS011;3204;42.698;23.298;2023-03-19T04:48:22;29.43;;;16.30;;
6342;SDS011;3204;42.698;23.298;2023-03-19T04:50:47;29.80;;;17.37;;
6342;SDS011;3204;42.698;23.298;2023-03-19T04:53:16;28.70;;;15.77;;
6342;SDS011;3204;42.698;23.298;2023-03-19T04:55:42;33.57;;;16.20;;
6342;SDS011;3204;42.698;23.298;2023-03-19T04:58:08;106.87;;;31.03;;
6342;SDS011;3204;42.698;23.298;2023-03-19T05:00:33;99.37;;;32.03;;
6342;SDS011;3204;42.698;23.298;2023-03-19T05:02:59;165.33;;;43.47;;
6342;SDS011;3204;42.698;23.298;2023-03-19T05:05:24;197.07;;;52.10;;
6342;SDS011;3204;42.698;23.298;2023-03-19T05:07:50;192.20;;;49.20;;
6342;SDS011;3204;42.698;23.298;2023-03-19T05:10:16;222.63;;;53.93;;
6342;SDS011;3204;42.698;23.298;2023-03-19T05:12:41;233.07;;;56.30;;
6342;SDS011;3204;42.698;23.298;2023-03-19T05:15:07;238.70;;;59.70;;
6342;SDS011;3204;42.698;23.298;2023-03-19T05:17:33;223.53;;;56.60;;
6342;SDS011;3204;42.698;23.298;2023-03-19T05:19:59;193.67;;;50.80;;
6342;SDS011;3204;42.698;23.298;2023-03-19T05:22:26;163.43;;;46.43;;
6342;SDS011;3204;42.698;23.298;2023-03-19T05:24:52;173.73;;;50.40;;
6342;SDS011;3204;42.698;23.298;2023-03-19T05:27:18;153.30;;;44.73;;
6342;SDS011;3204;42.698;23.298;2023-03-19T05:29:43;154.30;;;46.93;;
6342;SDS011;3204;42.698;23.298;2023-03-19T05:32:09;100.70;;;35.40;;
6342;SDS011;3204;42.698;23.298;2023-03-19T05:34:35;62.30;;;22.00;;
6342;SDS011;3204;42.698;23.298;2023-03-19T05:37:01;30.53;;;16.67;;
6342;SDS011;3204;42.698;23.298;2023-03-19T05:39:27;32.20;;;17.03;;
6342;SDS011;3204;42.698;23.298;2023-03-19T05:41:52;28.83;;;16.43;;
6342;SDS011;3204;42.698;23.298;2023-03-19T05:44:18;35.53;;;18.57;;
6342;SDS011;3204;42.698;23.298;2023-03-19T05:46:43;22.57;;;15.23;;
6342;SDS011;3204;42.698;23.298;2023-03-19T05:49:09;22.97;;;14.70;;
6342;SDS011;3204;42.698;23.298;2023-03-19T05:51:34;20.47;;;14.97;;
6342;SDS011;3204;42.698;23.298;2023-03-19T05:54:00;19.63;;;14.13;;
6342;SDS011;3204;42.698;23.298;2023-03-19T05:56:26;21.87;;;15.07;;
6342;SDS011;3204;42.698;23.298;2023-03-19T05:58:52;28.97;;;16.77;;
6342;SDS011;3204;42.698;23.298;2023-03-19T06:01:18;35.83;;;18.50;;
6342;SDS011;3204;42.698;23.298;2023-03-19T06:03:43;30.47;;;18.73;;
6342;SDS011;3204;42.698;23.298;2023-03-19T06:06:09;31.43;;;19.03;;
6342;SDS011;3204;42.698;23.298;2023-03-19T06:08:34;38.10;;;22.33;;
6342;SDS011;3204;42.698;23.298;2023-03-19T06:11:00;40.03;;;23.23;;
6342;SDS011;3204;42.698;23.298;2023-03-19T06:13:26;40.97;;;22.73;;
6342;SDS011;3204;42.698;23.298;2023-03-19T06:15:51;43.00;;;25.07;;
6342;SDS011;3204;42.698;23.298;2023-03-19T06:18:17;50.40;;;23.93;;
6342;SDS011;3204;42.698;23.298;2023-03-19T06:20:42;39.57;;;23.47;;
6342;SDS011;3204;42.698;23.298;2023-03-19T06:23:10;44.27;;;24.87;;
6342;SDS011;3204;42.698;23.298;2023-03-19T06:25:35;42.83;;;24.77;;
6342;SDS011;3204;42.698;23.298;2023-03-19T06:28:01;46.53;;;24.83;;
6342;SDS011;3204;42.698;23.298;2023-03-19T06:30:27;37.93;;;23.27;;
6342;SDS011;3204;42.698;23.298;2023-03-19T06:32:53;43.37;;;24.27;;
6342;SDS011;3204;42.698;23.298;2023-03-19T06:35:19;34.67;;;22.80;;
6342;SDS011;3204;42.698;23.298;2023-03-19T06:37:44;37.37;;;22.50;;
6342;SDS011;3204;42.698;23.298;2023-03-19T06:40:10;34.67;;;21.83;;
6342;SDS011;3204;42.698;23.298;2023-03-19T06:42:36;34.70;;;21.70;;
6342;SDS011;3204;42.698;23.298;2023-03-19T06:45:02;33.13;;;21.07;;
6342;SDS011;3204;42.698;23.298;2023-03-19T06:47:28;31.23;;;20.70;;
6342;SDS011;3204;42.698;23.298;2023-03-19T06:49:53;34.13;;;20.87;;
6342;SDS011;3204;42.698;23.298;2023-03-19T06:52:20;31.63;;;20.37;;
6342;SDS011;3204;42.698;23.298;2023-03-19T06:54:46;26.80;;;19.10;;
6342;SDS011;3204;42.698;23.298;2023-03-19T06:57:11;24.57;;;18.10;;
6342;SDS011;3204;42.698;23.298;2023-03-19T06:59:37;28.13;;;17.27;;
6342;SDS011;3204;42.698;23.298;2023-03-19T07:02:02;23.43;;;17.97;;
6342;SDS011;3204;42.698;23.298;2023-03-19T07:04:28;33.30;;;17.67;;
6342;SDS011;3204;42.698;23.298;2023-03-19T07:06:54;25.13;;;17.50;;
6342;SDS011;3204;42.698;23.298;2023-03-19T07:09:19;28.20;;;17.20;;
6342;SDS011;3204;42.698;23.298;2023-03-19T07:11:45;21.37;;;15.63;;
6342;SDS011;3204;42.698;23.298;2023-03-19T07:14:10;22.10;;;15.23;;
6342;SDS011;3204;42.698;23.298;2023-03-19T07:16:36;23.80;;;16.77;;
6342;SDS011;3204;42.698;23.298;2023-03-19T07:19:01;26.40;;;17.47;;
6342;SDS011;3204;42.698;23.298;2023-03-19T07:21:27;22.80;;;16.13;;
6342;SDS011;3204;42.698;23.298;2023-03-19T07:23:53;19.77;;;15.23;;
6342;SDS011;3204;42.698;23.298;2023-03-19T07:26:18;23.13;;;16.43;;
6342;SDS011;3204;42.698;23.298;2023-03-19T07:28:44;25.10;;;16.20;;
6342;SDS011;3204;42.698;23.298;2023-03-19T07:31:10;22.53;;;16.30;;
6342;SDS011;3204;42.698;23.298;2023-03-19T07:33:35;22.40;;;15.90;;
6342;SDS011;3204;42.698;23.298;2023-03-19T07:36:01;17.33;;;15.03;;
6342;SDS011;3204;42.698;23.298;2023-03-19T07:38:26;25.70;;;18.23;;
6342;SDS011;3204;42.698;23.298;2023-03-19T07:40:52;22.80;;;20.37;;
6342;SDS011;3204;42.698;23.298;2023-03-19T07:43:17;15.37;;;13.87;;
6342;SDS011;3204;42.698;23.298;2023-03-19T07:45:43;15.00;;;12.73;;
6342;SDS011;3204;42.698;23.298;2023-03-19T07:48:13;17.57;;;13.23;;
6342;SDS011;3204;42.698;23.298;2023-03-19T07:50:38;17.20;;;13.70;;
6342;SDS011;3204;42.698;23.298;2023-03-19T07:53:04;20.17;;;13.47;;
6342;SDS011;3204;42.698;23.298;2023-03-19T07:55:29;13.73;;;12.50;;
6342;SDS011;3204;42.698;23.298;2023-03-19T07:57:55;17.63;;;12.90;;
6342;SDS011;3204;42.698;23.298;2023-03-19T08:00:21;16.43;;;13.43;;
6342;SDS011;3204;42.698;23.298;2023-03-19T08:02:46;19.47;;;13.67;;
6342;SDS011;3204;42.698;23.298;2023-03-19T08:05:12;19.47;;;13.83;;
6342;SDS011;3204;42.698;23.298;2023-03-19T08:07:38;17.50;;;12.13;;
6342;SDS011;3204;42.698;23.298;2023-03-19T08:10:04;16.63;;;12.77;;
6342;SDS011;3204;42.698;23.298;2023-03-19T08:12:30;15.63;;;11.33;;
6342;SDS011;3204;42.698;23.298;2023-03-19T08:14:56;13.20;;;10.63;;
6342;SDS011;3204;42.698;23.298;2023-03-19T08:17:22;12.87;;;10.50;;
6342;SDS011;3204;42.698;23.298;2023-03-19T08:19:47;15.83;;;11.37;;
6342;SDS011;3204;42.698;23.298;2023-03-19T08:22:13;15.13;;;11.33;;
6342;SDS011;3204;42.698;23.298;2023-03-19T08:24:38;15.63;;;10.65;;
6342;SDS011;3204;42.698;23.298;2023-03-19T08:27:04;11.82;;;10.65;;
6342;SDS011;3204;42.698;23.298;2023-03-19T08:29:29;11.40;;;10.30;;
6342;SDS011;3204;42.698;23.298;2023-03-19T08:31:55;12.18;;;10.90;;
6342;SDS011;3204;42.698;23.298;2023-03-19T08:34:22;14.43;;;11.60;;
6342;SDS011;3204;42.698;23.298;2023-03-19T08:36:48;15.18;;;11.13;;
6342;SDS011;3204;42.698;23.298;2023-03-19T08:39:14;16.65;;;11.02;;
6342;SDS011;3204;42.698;23.298;2023-03-19T08:41:39;13.25;;;11.82;;
6342;SDS011;3204;42.698;23.298;2023-03-19T08:44:05;14.27;;;10.77;;
6342;SDS011;3204;42.698;23.298;2023-03-19T08:46:31;13.02;;;11.05;;
6342;SDS011;3204;42.698;23.298;2023-03-19T08:48:57;12.80;;;11.50;;
6342;SDS011;3204;42.698;23.298;2023-03-19T08:51:23;11.35;;;10.25;;
6342;SDS011;3204;42.698;23.298;2023-03-19T08:53:52;12.98;;;10.68;;
6342;SDS011;3204;42.698;23.298;2023-03-19T08:56:18;12.85;;;11.50;;
6342;SDS011;3204;42.698;23.298;2023-03-19T08:58:44;13.27;;;11.30;;
6342;SDS011;3204;42.698;23.298;2023-03-19T09:01:10;13.15;;;11.05;;
6342;SDS011;3204;42.698;23.298;2023-03-19T09:03:38;14.68;;;11.02;;
6342;SDS011;3204;42.698;23.298;2023-03-19T09:06:05;10.68;;;9.88;;
6342;SDS011;3204;42.698;23.298;2023-03-19T09:08:32;12.52;;;11.30;;
6342;SDS011;3204;42.698;23.298;2023-03-19T09:10:58;10.85;;;9.82;;
6342;SDS011;3204;42.698;23.298;2023-03-19T09:13:24;11.30;;;10.18;;
6342;SDS011;3204;42.698;23.298;2023-03-19T09:15:50;11.52;;;10.27;;
6342;SDS011;3204;42.698;23.298;2023-03-19T09:18:15;11.40;;;10.25;;
6342;SDS011;3204;42.698;23.298;2023-03-19T09:20:41;14.55;;;10.20;;
6342;SDS011;3204;42.698;23.298;2023-03-19T09:23:07;12.07;;;10.73;;
6342;SDS011;3204;42.698;23.298;2023-03-19T09:25:33;11.10;;;10.00;;
6342;SDS011;3204;42.698;23.298;2023-03-19T09:27:58;13.00;;;9.23;;
6342;SDS011;3204;42.698;23.298;2023-03-19T09:30:24;12.43;;;9.88;;
6342;SDS011;3204;42.698;23.298;2023-03-19T09:32:49;14.07;;;12.68;;
6342;SDS011;3204;42.698;23.298;2023-03-19T09:35:15;13.75;;;11.10;;
6342;SDS011;3204;42.698;23.298;2023-03-19T09:37:40;13.50;;;12.02;;
6342;SDS011;3204;42.698;23.298;2023-03-19T09:40:06;13.20;;;11.07;;
6342;SDS011;3204;42.698;23.298;2023-03-19T09:45:11;14.20;;;11.43;;
6342;SDS011;3204;42.698;23.298;2023-03-19T09:47:39;13.88;;;11.75;;
6342;SDS011;3204;42.698;23.298;2023-03-19T09:50:09;14.13;;;12.63;;
6342;SDS011;3204;42.698;23.298;2023-03-19T09:52:45;13.50;;;11.38;;
6342;SDS011;3204;42.698;23.298;2023-03-19T09:57:48;11.05;;;10.05;;
6342;SDS011;3204;42.698;23.298;2023-03-19T10:00:19;10.57;;;9.77;;
6342;SDS011;3204;42.698;23.298;2023-03-19T10:05:39;10.07;;;9.38;;
6342;SDS011;3204;42.698;23.298;2023-03-19T10:08:19;10.23;;;9.18;;
6342;SDS011;3204;42.698;23.298;2023-03-19T10:16:25;9.27;;;8.60;;
6342;SDS011;3204;42.698;23.298;2023-03-19T10:18:53;9.52;;;8.73;;
6342;SDS011;3204;42.698;23.298;2023-03-19T10:21:30;8.98;;;8.35;;
6342;SDS011;3204;42.698;23.298;2023-03-19T10:24:05;9.00;;;8.30;;
6342;SDS011;3204;42.698;23.298;2023-03-19T10:26:37;7.90;;;7.40;;
6342;SDS011;3204;42.698;23.298;2023-03-19T10:29:03;8.82;;;8.02;;
6342;SDS011;3204;42.698;23.298;2023-03-19T10:37:00;10.05;;;7.95;;
6342;SDS011;3204;42.698;23.298;2023-03-19T10:39:39;8.77;;;8.02;;
6342;SDS011;3204;42.698;23.298;2023-03-19T10:42:20;9.60;;;8.25;;
6342;SDS011;3204;42.698;23.298;2023-03-19T10:47:29;8.70;;;8.10;;
6342;SDS011;3204;42.698;23.298;2023-03-19T10:50:03;9.02;;;8.15;;
6342;SDS011;3204;42.698;23.298;2023-03-19T10:52:30;8.65;;;7.97;;
6342;SDS011;3204;42.698;23.298;2023-03-19T10:55:02;8.95;;;8.00;;
6342;SDS011;3204;42.698;23.298;2023-03-19T10:57:36;8.55;;;7.82;;
6342;SDS011;3204;42.698;23.298;2023-03-19T11:00:13;8.35;;;7.65;;
6342;SDS011;3204;42.698;23.298;2023-03-19T11:02:51;7.53;;;7.03;;
6342;SDS011;3204;42.698;23.298;2023-03-19T11:05:25;6.78;;;6.38;;
6342;SDS011;3204;42.698;23.298;2023-03-19T11:07:54;8.50;;;7.82;;
6342;SDS011;3204;42.698;23.298;2023-03-19T11:10:26;6.90;;;6.47;;
6342;SDS011;3204;42.698;23.298;2023-03-19T11:12:57;7.53;;;6.93;;
6342;SDS011;3204;42.698;23.298;2023-03-19T11:15:31;7.95;;;7.22;;
6342;SDS011;3204;42.698;23.298;2023-03-19T11:18:05;8.20;;;7.50;;
6342;SDS011;3204;42.698;23.298;2023-03-19T11:20:48;7.45;;;6.95;;
6342;SDS011;3204;42.698;23.298;2023-03-19T11:23:25;7.38;;;6.82;;
6342;SDS011;3204;42.698;23.298;2023-03-19T11:25:52;6.97;;;6.40;;
6342;SDS011;3204;42.698;23.298;2023-03-19T11:28:23;7.28;;;6.70;;
6342;SDS011;3204;42.698;23.298;2023-03-19T11:42:29;8.55;;;7.85;;
6342;SDS011;3204;42.698;23.298;2023-03-19T11:50:32;8.52;;;7.93;;
6342;SDS011;3204;42.698;23.298;2023-03-19T11:53:17;9.85;;;7.80;;
6342;SDS011;3204;42.698;23.298;2023-03-19T11:56:04;8.18;;;7.47;;
6342;SDS011;3204;42.698;23.298;2023-03-19T12:01:36;8.02;;;7.22;;
6342;SDS011;3204;42.698;23.298;2023-03-19T12:12:29;8.75;;;7.63;;
6342;SDS011;3204;42.698;23.298;2023-03-19T12:20:43;9.43;;;8.50;;
6342;SDS011;3204;42.698;23.298;2023-03-19T12:25:57;8.90;;;8.10;;
6342;SDS011;3204;42.698;23.298;2023-03-19T12:28:38;8.25;;;7.75;;
6342;SDS011;3204;42.698;23.298;2023-03-19T12:34:32;6.80;;;6.32;;
6342;SDS011;3204;42.698;23.298;2023-03-19T12:37:06;7.25;;;6.70;;
6342;SDS011;3204;42.698;23.298;2023-03-19T12:39:41;7.80;;;7.30;;
6342;SDS011;3204;42.698;23.298;2023-03-19T12:42:17;7.63;;;6.82;;
6342;SDS011;3204;42.698;23.298;2023-03-19T12:44:45;7.35;;;6.75;;
6342;SDS011;3204;42.698;23.298;2023-03-19T12:47:31;7.40;;;6.85;;
6342;SDS011;3204;42.698;23.298;2023-03-19T12:50:05;6.55;;;6.10;;
6342;SDS011;3204;42.698;23.298;2023-03-19T12:52:48;7.38;;;6.80;;
6342;SDS011;3204;42.698;23.298;2023-03-19T12:57:53;6.20;;;5.53;;
6342;SDS011;3204;42.698;23.298;2023-03-19T13:03:16;7.85;;;5.70;;
6342;SDS011;3204;42.698;23.298;2023-03-19T13:11:15;6.32;;;5.78;;
6342;SDS011;3204;42.698;23.298;2023-03-19T13:13:55;7.50;;;6.50;;
6342;SDS011;3204;42.698;23.298;2023-03-19T13:16:49;6.32;;;5.88;;
6342;SDS011;3204;42.698;23.298;2023-03-19T13:22:03;5.97;;;5.50;;
6342;SDS011;3204;42.698;23.298;2023-03-19T13:24:34;6.85;;;6.25;;
6342;SDS011;3204;42.698;23.298;2023-03-19T13:27:02;5.68;;;5.18;;
6342;SDS011;3204;42.698;23.298;2023-03-19T13:29:32;5.70;;;5.30;;
6342;SDS011;3204;42.698;23.298;2023-03-19T13:32:23;6.18;;;5.65;;
6342;SDS011;3204;42.698;23.298;2023-03-19T13:34:51;6.10;;;5.60;;
6342;SDS011;3204;42.698;23.298;2023-03-19T13:37:54;5.53;;;5.03;;
6342;SDS011;3204;42.698;23.298;2023-03-19T13:40:40;6.07;;;5.55;;
6342;SDS011;3204;42.698;23.298;2023-03-19T13:43:18;7.07;;;5.80;;
6342;SDS011;3204;42.698;23.298;2023-03-19T13:53:40;6.10;;;5.20;;
6342;SDS011;3204;42.698;23.298;2023-03-19T13:56:16;5.50;;;5.10;;
6342;SDS011;3204;42.698;23.298;2023-03-19T13:58:49;5.55;;;5.07;;
6342;SDS011;3204;42.698;23.298;2023-03-19T14:08:59;5.60;;;5.13;;
6342;SDS011;3204;42.698;23.298;2023-03-19T14:11:30;6.53;;;5.57;;
6342;SDS011;3204;42.698;23.298;2023-03-19T14:14:04;5.78;;;5.35;;
6342;SDS011;3204;42.698;23.298;2023-03-19T14:16:35;5.90;;;5.43;;
6342;SDS011;3204;42.698;23.298;2023-03-19T14:19:10;9.82;;;5.10;;
6342;SDS011;3204;42.698;23.298;2023-03-19T14:21:42;5.95;;;5.55;;
6342;SDS011;3204;42.698;23.298;2023-03-19T14:24:20;7.13;;;5.85;;
6342;SDS011;3204;42.698;23.298;2023-03-19T14:26:45;6.20;;;5.60;;
6342;SDS011;3204;42.698;23.298;2023-03-19T14:29:14;5.45;;;4.88;;
6342;SDS011;3204;42.698;23.298;2023-03-19T14:39:26;8.25;;;5.20;;
6342;SDS011;3204;42.698;23.298;2023-03-19T14:42:05;6.47;;;5.07;;
6342;SDS011;3204;42.698;23.298;2023-03-19T14:53:03;5.20;;;4.70;;
6342;SDS011;3204;42.698;23.298;2023-03-19T14:55:34;5.43;;;4.88;;
6342;SDS011;3204;42.698;23.298;2023-03-19T14:58:01;9.15;;;5.63;;
6342;SDS011;3204;42.698;23.298;2023-03-19T15:00:27;7.68;;;5.75;;
6342;SDS011;3204;42.698;23.298;2023-03-19T15:02:53;5.35;;;4.85;;
6342;SDS011;3204;42.698;23.298;2023-03-19T15:05:21;8.02;;;5.07;;
6342;SDS011;3204;42.698;23.298;2023-03-19T15:07:55;6.93;;;5.22;;
6342;SDS011;3204;42.698;23.298;2023-03-19T15:10:27;5.80;;;5.30;;
6342;SDS011;3204;42.698;23.298;2023-03-19T15:15:56;5.47;;;5.13;;
6342;SDS011;3204;42.698;23.298;2023-03-19T15:18:45;6.43;;;5.15;;
6342;SDS011;3204;42.698;23.298;2023-03-19T15:21:10;5.55;;;5.13;;
6342;SDS011;3204;42.698;23.298;2023-03-19T15:23:36;5.50;;;5.10;;
6342;SDS011;3204;42.698;23.298;2023-03-19T15:26:05;8.25;;;5.85;;
6342;SDS011;3204;42.698;23.298;2023-03-19T15:28:46;5.68;;;4.60;;
6342;SDS011;3204;42.698;23.298;2023-03-19T15:31:16;6.03;;;5.55;;
6342;SDS011;3204;42.698;23.298;2023-03-19T15:33:43;6.20;;;5.53;;
6342;SDS011;3204;42.698;23.298;2023-03-19T15:38:44;8.50;;;7.20;;
6342;SDS011;3204;42.698;23.298;2023-03-19T15:41:31;7.35;;;6.65;;
6342;SDS011;3204;42.698;23.298;2023-03-19T15:44:00;7.05;;;6.38;;
6342;SDS011;3204;42.698;23.298;2023-03-19T15:46:32;7.43;;;6.78;;
6342;SDS011;3204;42.698;23.298;2023-03-19T15:51:31;15.13;;;10.95;;
6342;SDS011;3204;42.698;23.298;2023-03-19T15:53:58;17.50;;;8.95;;
6342;SDS011;3204;42.698;23.298;2023-03-19T15:56:25;13.18;;;9.35;;
6342;SDS011;3204;42.698;23.298;2023-03-19T15:58:51;9.93;;;7.63;;
6342;SDS011;3204;42.698;23.298;2023-03-19T16:01:21;8.73;;;8.00;;
6342;SDS011;3204;42.698;23.298;2023-03-19T16:03:58;7.47;;;6.80;;
6342;SDS011;3204;42.698;23.298;2023-03-19T16:06:35;8.27;;;7.60;;
6342;SDS011;3204;42.698;23.298;2023-03-19T16:09:16;10.50;;;7.53;;
6342;SDS011;3204;42.698;23.298;2023-03-19T16:11:47;10.18;;;9.23;;
6342;SDS011;3204;42.698;23.298;2023-03-19T16:16:38;17.65;;;11.98;;
6342;SDS011;3204;42.698;23.298;2023-03-19T16:19:22;18.52;;;10.48;;
6342;SDS011;3204;42.698;23.298;2023-03-19T16:21:54;7.60;;;7.00;;
6342;SDS011;3204;42.698;23.298;2023-03-19T16:26:55;14.93;;;9.07;;
6342;SDS011;3204;42.698;23.298;2023-03-19T16:29:23;10.65;;;9.55;;
6342;SDS011;3204;42.698;23.298;2023-03-19T16:32:00;13.13;;;9.98;;
6342;SDS011;3204;42.698;23.298;2023-03-19T16:34:40;11.15;;;10.07;;
6342;SDS011;3204;42.698;23.298;2023-03-19T16:42:37;15.35;;;10.50;;
6342;SDS011;3204;42.698;23.298;2023-03-19T16:45:24;16.02;;;11.48;;
6342;SDS011;3204;42.698;23.298;2023-03-19T16:47:55;13.82;;;11.25;;
6342;SDS011;3204;42.698;23.298;2023-03-19T16:50:26;11.48;;;10.32;;
6342;SDS011;3204;42.698;23.298;2023-03-19T16:53:03;22.25;;;12.45;;
6342;SDS011;3204;42.698;23.298;2023-03-19T16:55:45;13.45;;;11.88;;
6342;SDS011;3204;42.698;23.298;2023-03-19T16:58:12;16.15;;;11.38;;